PORTS® Data Listing: 9439040 Astoria, OR

CO-OPS RAW PORTS DATA

************************      PRELIMINARY DATA      ************************** 

     THIS RAW DATA HAS NOT BEEN SUBJECT TO THE NATIONAL OCEAN SERVICE'S        
     QUALITY CONTROL OR QUALITY ASSURANCE PROCEDURES AND DOES NOT MEET         
     THE CRITERIA AND STANDARDS OF OFFICIAL NATIONAL OCEAN SERVICE             
     DATA.  IT IS RELEASED FOR LIMITED PUBLIC USE AS PRELIMINARY DATA TO       
     BE USED ONLY WITH APPROPRIATE CAUTION.                                    

************************      PRELIMINARY DATA      ************************** 


       CD   -   Calendar date
       T    -   Time
       TZ   -   Timezone
       PW   -   Predicted water level (feet above MLLW)
       OW   -   Observed water level (feet above MLLW)
       WS   -   Wind speed (knots)
       WD   -   Wind direction (degrees true)
       WG   -   Wind gust (knots)
       AT   -   Air temperature (degrees farenheit)
       WT   -   Water temperature (degrees farenheit)
       AP   -   Air pressure (millibars)
       SA   -   Salinty (PSU - Practical Salinity Units)
       SG   -   Specific gravity
       RH   -   Relative humidity
       AG   -   Air gap (feet)
       VI   -   Visibility (nautical miles)

       ** NOTE **
       A variable that has its data fields filled with "9"s, indicates that
       data was not collected for that sample period.
       **********


STATION NAME: Astoria (9439040)
****************************************************************************************************
    CD       T    TZ    PW     OW    WS   WD   WG    AT    WT    AP    SA    SG     RH    AG   VI
****************************************************************************************************
2020/02/18 02:00 PST    3.76   3.23    3  149    4  35.2  43.2 1029.0 -9.9 -9.999 -99.9 -99.99 -9.99
2020/02/18 02:06 PST    3.72   3.19    2  142    4  35.2  43.3 1028.9 -9.9 -9.999 -99.9 -99.99 -9.99
2020/02/18 02:12 PST    3.69   3.16    4  148    5  35.2  43.3 1028.9 -9.9 -9.999 -99.9 -99.99 -9.99
2020/02/18 02:18 PST    3.66   3.13    2   41    4  35.1  43.2 1028.9 -9.9 -9.999 -99.9 -99.99 -9.99
2020/02/18 02:24 PST    3.64   3.11    0   69    2  35.2  43.3 1028.9 -9.9 -9.999 -99.9 -99.99 -9.99
2020/02/18 02:30 PST    3.62   3.10    1  136    3  35.1  43.3 1028.9 -9.9 -9.999 -99.9 -99.99 -9.99
2020/02/18 02:36 PST    3.61   3.09    0  355    1  35.1  43.3 1028.8 -9.9 -9.999 -99.9 -99.99 -9.99
2020/02/18 02:42 PST    3.61   3.08    1  223    3  35.1  43.2 1028.8 -9.9 -9.999 -99.9 -99.99 -9.99
2020/02/18 02:48 PST    3.61   3.09    3  173    5  34.9  43.2 1028.7 -9.9 -9.999 -99.9 -99.99 -9.99
2020/02/18 02:54 PST    3.62   3.10    3  153    6  34.7  43.2 1028.7 -9.9 -9.999 -99.9 -99.99 -9.99
2020/02/18 03:00 PST    3.64   3.12    2  127    4  34.7  43.2 1028.7 -9.9 -9.999 -99.9 -99.99 -9.99
2020/02/18 03:06 PST    3.67   3.13    4  359    6  34.7  43.2 1028.7 -9.9 -9.999 -99.9 -99.99 -9.99
2020/02/18 03:12 PST    3.70   3.14    2  352    6  34.9  43.2 1028.6 -9.9 -9.999 -99.9 -99.99 -9.99
2020/02/18 03:18 PST    3.74   3.17    1  147    5  34.5  43.2 1028.6 -9.9 -9.999 -99.9 -99.99 -9.99
2020/02/18 03:24 PST    3.78   3.20    3  309    4  34.5  43.2 1028.6 -9.9 -9.999 -99.9 -99.99 -9.99
2020/02/18 03:30 PST    3.84   3.24    4  154    6  34.2  43.2 1028.5 -9.9 -9.999 -99.9 -99.99 -9.99
2020/02/18 03:36 PST    3.90   3.28    5  148    8  34.3  43.2 1028.5 -9.9 -9.999 -99.9 -99.99 -9.99
2020/02/18 03:42 PST    3.96   3.32    1  100    5  34.5  43.2 1028.4 -9.9 -9.999 -99.9 -99.99 -9.99
2020/02/18 03:48 PST    4.03   3.38    2  175    5  34.9  43.2 1028.4 -9.9 -9.999 -99.9 -99.99 -9.99
2020/02/18 03:54 PST    4.11   3.45    5  153    7  34.7  43.2 1028.4 -9.9 -9.999 -99.9 -99.99 -9.99
2020/02/18 04:00 PST    4.20   3.52    5  152    6  34.5  43.2 1028.5 -9.9 -9.999 -99.9 -99.99 -9.99
2020/02/18 04:06 PST    4.29   3.59    6  140    9  34.0  43.2 1028.3 -9.9 -9.999 -99.9 -99.99 -9.99
2020/02/18 04:12 PST    4.38   3.66    4  140    9  33.8  43.2 1028.3 -9.9 -9.999 -99.9 -99.99 -9.99
2020/02/18 04:18 PST    4.48   3.75    3  133    6  34.2  43.2 1028.3 -9.9 -9.999 -99.9 -99.99 -9.99
2020/02/18 04:24 PST    4.58   3.84    2  100    5  34.3  43.2 1028.2 -9.9 -9.999 -99.9 -99.99 -9.99
2020/02/18 04:30 PST    4.69   3.93    3  143    6  34.3  43.2 1028.2 -9.9 -9.999 -99.9 -99.99 -9.99
2020/02/18 04:36 PST    4.80   4.03    5  147    8  34.2  43.2 1028.1 -9.9 -9.999 -99.9 -99.99 -9.99
2020/02/18 04:42 PST    4.92   4.12    5  141    7  34.2  43.2 1028.0 -9.9 -9.999 -99.9 -99.99 -9.99
2020/02/18 04:48 PST    5.04   4.20    4  140    7  34.2  43.3 1028.0 -9.9 -9.999 -99.9 -99.99 -9.99
2020/02/18 04:54 PST    5.15   4.33    4  134    6  34.3  43.3 1028.0 -9.9 -9.999 -99.9 -99.99 -9.99
2020/02/18 05:00 PST    5.28   4.45    4  141    6  34.3  43.3 1028.1 -9.9 -9.999 -99.9 -99.99 -9.99
2020/02/18 05:06 PST    5.40   4.54    2  119    6  34.5  43.3 1028.2 -9.9 -9.999 -99.9 -99.99 -9.99
2020/02/18 05:12 PST    5.52   4.65    3   18    6  34.7  43.3 1028.2 -9.9 -9.999 -99.9 -99.99 -9.99
2020/02/18 05:18 PST    5.65   4.78    6   11    8  34.3  43.3 1028.2 -9.9 -9.999 -99.9 -99.99 -9.99
2020/02/18 05:24 PST    5.78   4.91    3   14    6  34.3  43.2 1028.2 -9.9 -9.999 -99.9 -99.99 -9.99
2020/02/18 05:30 PST    5.90   5.00    3   14    7  34.2  43.2 1028.2 -9.9 -9.999 -99.9 -99.99 -9.99
2020/02/18 05:36 PST    6.03   5.12    2   46    5  34.2  43.2 1028.2 -9.9 -9.999 -99.9 -99.99 -9.99
2020/02/18 05:42 PST    6.16   5.26    3  141    6  34.2  43.2 1028.1 -9.9 -9.999 -99.9 -99.99 -9.99
2020/02/18 05:48 PST    6.28   5.39    0   59    4  34.2  43.2 1028.0 -9.9 -9.999 -99.9 -99.99 -9.99
2020/02/18 05:54 PST    6.41   5.52    3  124    5  34.0  43.2 1028.0 -9.9 -9.999 -99.9 -99.99 -9.99
2020/02/18 06:00 PST    6.53   5.66    3  146    4  34.0  43.2 1028.0 -9.9 -9.999 -99.9 -99.99 -9.99
2020/02/18 06:06 PST    6.66   5.77    5  146    7  33.8  43.2 1027.9 -9.9 -9.999 -99.9 -99.99 -9.99
2020/02/18 06:12 PST    6.78   5.90    3  129    7  34.0  43.2 1027.9 -9.9 -9.999 -99.9 -99.99 -9.99
2020/02/18 06:18 PST    6.90   6.02    3  143    7  33.6  43.2 1027.8 -9.9 -9.999 -99.9 -99.99 -9.99
2020/02/18 06:24 PST    7.02   6.16    2  152    6  33.8  43.2 1027.9 -9.9 -9.999 -99.9 -99.99 -9.99
2020/02/18 06:30 PST    7.14   6.28    5  147    6  33.6  43.2 1027.8 -9.9 -9.999 -99.9 -99.99 -9.99
2020/02/18 06:36 PST    7.25   6.39    5  138    7  33.8  43.2 1027.7 -9.9 -9.999 -99.9 -99.99 -9.99
2020/02/18 06:42 PST    7.36   6.53    5  144    7  33.6  43.2 1027.7 -9.9 -9.999 -99.9 -99.99 -9.99
2020/02/18 06:48 PST    7.47   6.64    5  136    8  33.4  43.2 1027.7 -9.9 -9.999 -99.9 -99.99 -9.99
2020/02/18 06:54 PST    7.58   6.75    5  138    8  33.4  43.2 1027.7 -9.9 -9.999 -99.9 -99.99 -9.99
2020/02/18 07:00 PST    7.68   6.88    5  128    9  33.6  43.2 1027.6 -9.9 -9.999 -99.9 -99.99 -9.99
2020/02/18 07:06 PST    7.78   6.99    3  123    6  33.4  43.2 1027.7 -9.9 -9.999 -99.9 -99.99 -9.99
2020/02/18 07:12 PST    7.88   7.08    4  131    6  33.6  43.2 1027.7 -9.9 -9.999 -99.9 -99.99 -9.99
2020/02/18 07:18 PST    7.97   7.19    3  143    6  33.6  43.2 1027.7 -9.9 -9.999 -99.9 -99.99 -9.99
2020/02/18 07:24 PST    8.06   7.29    4  103    8  33.6  43.2 1027.8 -9.9 -9.999 -99.9 -99.99 -9.99
2020/02/18 07:30 PST    8.15   7.37    2  118    5  33.8  43.2 1027.8 -9.9 -9.999 -99.9 -99.99 -9.99
2020/02/18 07:36 PST    8.23   7.46    1   39    4  34.0  43.2 1027.8 -9.9 -9.999 -99.9 -99.99 -9.99
2020/02/18 07:42 PST    8.30   7.54    4  129    6  33.4  43.2 1027.9 -9.9 -9.999 -99.9 -99.99 -9.99
2020/02/18 07:48 PST    8.37   7.62    4  142    7  33.3  43.2 1027.9 -9.9 -9.999 -99.9 -99.99 -9.99
2020/02/18 07:54 PST    8.43   7.71    2   63    4  33.6  43.2 1027.8 -9.9 -9.999 -99.9 -99.99 -9.99
2020/02/18 08:00 PST    8.49   7.79    2  141    6  33.6  43.2 1027.8 -9.9 -9.999 -99.9 -99.99 -9.99
2020/02/18 08:06 PST    8.54   7.85    3  155    5  33.6  43.2 1027.7 -9.9 -9.999 -99.9 -99.99 -9.99
2020/02/18 08:12 PST    8.58   7.90    2  115    6  33.8  43.2 1027.8 -9.9 -9.999 -99.9 -99.99 -9.99
2020/02/18 08:18 PST    8.62   7.94    3  355    4  34.2  43.2 1027.9 -9.9 -9.999 -99.9 -99.99 -9.99
2020/02/18 08:24 PST    8.65   8.00    5    9    7  34.2  43.2 1027.9 -9.9 -9.999 -99.9 -99.99 -9.99
2020/02/18 08:30 PST    8.67   8.04    4  360    7  34.0  43.2 1027.9 -9.9 -9.999 -99.9 -99.99 -9.99
2020/02/18 08:36 PST    8.69   8.05    1  334    5  34.2  43.2 1027.9 -9.9 -9.999 -99.9 -99.99 -9.99
2020/02/18 08:42 PST    8.70   8.07    4  144    5  33.8  43.2 1027.9 -9.9 -9.999 -99.9 -99.99 -9.99
2020/02/18 08:48 PST    8.70   8.08    3  102    6  34.0  43.2 1027.8 -9.9 -9.999 -99.9 -99.99 -9.99
2020/02/18 08:54 PST    8.70   8.09    2   12    4  33.8  43.2 1027.8 -9.9 -9.999 -99.9 -99.99 -9.99
2020/02/18 09:00 PST    8.68   8.08    1  155    4  34.0  43.2 1027.8 -9.9 -9.999 -99.9 -99.99 -9.99
2020/02/18 09:06 PST    8.66   8.07    2  128    5  34.2  43.2 1027.7 -9.9 -9.999 -99.9 -99.99 -9.99
2020/02/18 09:12 PST    8.63   8.04    3  153    5  34.0  43.2 1027.7 -9.9 -9.999 -99.9 -99.99 -9.99
2020/02/18 09:18 PST    8.59   8.00    2  100    5  34.3  43.2 1027.7 -9.9 -9.999 -99.9 -99.99 -9.99
2020/02/18 09:24 PST    8.55   7.97    4    6    6  34.3  43.2 1027.7 -9.9 -9.999 -99.9 -99.99 -9.99
2020/02/18 09:30 PST    8.49   7.92    7   17    8  34.5  43.2 1027.7 -9.9 -9.999 -99.9 -99.99 -9.99
2020/02/18 09:36 PST    8.43   7.86    3   74    8  34.7  43.2 1027.7 -9.9 -9.999 -99.9 -99.99 -9.99
2020/02/18 09:42 PST    8.37   7.79    3   34    5  35.1  43.2 1027.7 -9.9 -9.999 -99.9 -99.99 -9.99
2020/02/18 09:48 PST    8.29   7.73    6    8    7  35.1  43.2 1027.6 -9.9 -9.999 -99.9 -99.99 -9.99
2020/02/18 09:54 PST    8.21   7.65    4    8    7  35.6  43.2 1027.5 -9.9 -9.999 -99.9 -99.99 -9.99
2020/02/18 10:00 PST    8.12   7.57    1  107    5  35.6  43.2 1027.5 -9.9 -9.999 -99.9 -99.99 -9.99
2020/02/18 10:06 PST    8.03   7.49    3  114    6  35.6  43.2 1027.5 -9.9 -9.999 -99.9 -99.99 -9.99
2020/02/18 10:12 PST    7.93   7.39    2  323    4  35.8  43.2 1027.4 -9.9 -9.999 -99.9 -99.99 -9.99
2020/02/18 10:18 PST    7.82   7.28    4    7    6  36.0  43.2 1027.4 -9.9 -9.999 -99.9 -99.99 -9.99
2020/02/18 10:24 PST    7.71   7.15    2   38    5  35.8  43.2 1027.5 -9.9 -9.999 -99.9 -99.99 -9.99
2020/02/18 10:30 PST    7.59   7.03    1  135    6  35.6  43.2 1027.3 -9.9 -9.999 -99.9 -99.99 -9.99
2020/02/18 10:36 PST    7.46   6.89    4  182    8  35.6  43.2 1027.2 -9.9 -9.999 -99.9 -99.99 -9.99
2020/02/18 10:42 PST    7.34   6.76    4  164    8  36.0  43.2 1027.2 -9.9 -9.999 -99.9 -99.99 -9.99
2020/02/18 10:48 PST    7.20   6.60    4  172    6  36.0  43.2 1027.2 -9.9 -9.999 -99.9 -99.99 -9.99
2020/02/18 10:54 PST    7.07   6.45    1  219    5  36.9  43.2 1027.1 -9.9 -9.999 -99.9 -99.99 -9.99
2020/02/18 11:00 PST    6.93   6.28    2  265    2  36.7  43.2 1027.1 -9.9 -9.999 -99.9 -99.99 -9.99
2020/02/18 11:06 PST    6.79   6.11    1  264    3  37.4  43.2 1027.0 -9.9 -9.999 -99.9 -99.99 -9.99
2020/02/18 11:12 PST    6.64   5.95    3  350    5  37.4  43.2 1027.0 -9.9 -9.999 -99.9 -99.99 -9.99
2020/02/18 11:18 PST    6.49   5.78    4   15    7  37.8  43.2 1027.0 -9.9 -9.999 -99.9 -99.99 -9.99
2020/02/18 11:24 PST    6.34   5.61    3  333    6  38.1  43.2 1026.9 -9.9 -9.999 -99.9 -99.99 -9.99
2020/02/18 11:30 PST    6.19   5.44    1  344    4  39.0  43.2 1026.8 -9.9 -9.999 -99.9 -99.99 -9.99
2020/02/18 11:36 PST    6.03   5.27    1  354    4  39.6  43.2 1026.8 -9.9 -9.999 -99.9 -99.99 -9.99
2020/02/18 11:42 PST    5.87   5.10    0    0    2  40.3  43.2 1026.8 -9.9 -9.999 -99.9 -99.99 -9.99
2020/02/18 11:48 PST    5.72   4.93    1  300    2  40.6  43.2 1026.7 -9.9 -9.999 -99.9 -99.99 -9.99
2020/02/18 11:54 PST    5.56   4.76    2  332    4  40.6  43.3 1026.6 -9.9 -9.999 -99.9 -99.99 -9.99
2020/02/18 12:00 PST    5.40   4.59    2  309    4  41.2  43.3 1026.6 -9.9 -9.999 -99.9 -99.99 -9.99
2020/02/18 12:06 PST    5.24   4.41    2  269    4  41.5  43.5 1026.5 -9.9 -9.999 -99.9 -99.99 -9.99
2020/02/18 12:12 PST    5.08   4.23    3  247    3  41.9  43.5 1026.4 -9.9 -9.999 -99.9 -99.99 -9.99
2020/02/18 12:18 PST    4.91   4.05    1  331    4  42.8  43.3 1026.2 -9.9 -9.999 -99.9 -99.99 -9.99
2020/02/18 12:24 PST    4.75   3.88    3  288    6  42.6  43.3 1026.1 -9.9 -9.999 -99.9 -99.99 -9.99
2020/02/18 12:30 PST    4.59   3.71    4  266    5  43.0  43.3 1026.0 -9.9 -9.999 -99.9 -99.99 -9.99
2020/02/18 12:36 PST    4.43   3.54    2  250    5  43.2  43.3 1025.9 -9.9 -9.999 -99.9 -99.99 -9.99
2020/02/18 12:42 PST    4.27   3.37    2  298    3  43.7  43.5 1025.8 -9.9 -9.999 -99.9 -99.99 -9.99
2020/02/18 12:48 PST    4.11   3.20    3  351    5  43.3  43.5 1025.8 -9.9 -9.999 -99.9 -99.99 -9.99
2020/02/18 12:54 PST    3.95   3.04    5  348    7  43.0  43.3 1025.8 -9.9 -9.999 -99.9 -99.99 -9.99
2020/02/18 13:00 PST    3.79   2.87    4  358    7  43.2  43.3 1025.7 -9.9 -9.999 -99.9 -99.99 -9.99
2020/02/18 13:06 PST    3.63   2.71    4  330    6  43.7  43.3 1025.4 -9.9 -9.999 -99.9 -99.99 -9.99
2020/02/18 13:12 PST    3.47   2.57    3  349    5  43.9  43.3 1025.4 -9.9 -9.999 -99.9 -99.99 -9.99
2020/02/18 13:18 PST    3.31   2.43    3  343    5  44.1  43.3 1025.3 -9.9 -9.999 -99.9 -99.99 -9.99
2020/02/18 13:24 PST    3.16   2.28    4  354    6  44.2  43.5 1025.3 -9.9 -9.999 -99.9 -99.99 -9.99
2020/02/18 13:30 PST    3.00   2.11    6    9    9  44.2  43.5 1025.3 -9.9 -9.999 -99.9 -99.99 -9.99
2020/02/18 13:36 PST    2.85   1.95    7   13   11  44.4  43.5 1025.3 -9.9 -9.999 -99.9 -99.99 -9.99
2020/02/18 13:42 PST    2.70   1.81    7    3   11  44.8  43.3 1025.3 -9.9 -9.999 -99.9 -99.99 -9.99
2020/02/18 13:48 PST    2.55   1.68    5    0   10  45.1  43.3 1025.1 -9.9 -9.999 -99.9 -99.99 -9.99
2020/02/18 13:54 PST    2.40   1.56    3  359    7  45.3  43.7 1025.0 -9.9 -9.999 -99.9 -99.99 -9.99
2020/02/18 14:00 PST    2.25   1.42    2  289    4  46.2  43.7 1024.9 -9.9 -9.999 -99.9 -99.99 -9.99
2020/02/18 14:06 PST    2.11   1.28    2  257    4  46.2  43.7 1024.9 -9.9 -9.999 -99.9 -99.99 -9.99
2020/02/18 14:12 PST    1.97   1.15    1  275    2  46.9  43.7 1024.9 -9.9 -9.999 -99.9 -99.99 -9.99
2020/02/18 14:18 PST    1.84   1.02    3  256    5  46.8  43.7 1024.9 -9.9 -9.999 -99.9 -99.99 -9.99
2020/02/18 14:24 PST    1.71   0.91    3  236    4  46.6  43.7 1025.0 -9.9 -9.999 -99.9 -99.99 -9.99
2020/02/18 14:30 PST    1.58   0.79    3  226    4  46.9  43.5 1025.0 -9.9 -9.999 -99.9 -99.99 -9.99
2020/02/18 14:36 PST    1.46   0.67    3  250    6  46.8  43.5 1025.0 -9.9 -9.999 -99.9 -99.99 -9.99
2020/02/18 14:42 PST    1.34   0.60    1  316    5  47.3  43.5 1025.1 -9.9 -9.999 -99.9 -99.99 -9.99
2020/02/18 14:48 PST    1.23   0.51    1  336    3  48.0  43.5 1025.0 -9.9 -9.999 -99.9 -99.99 -9.99
2020/02/18 14:54 PST    1.12   0.38    3  326    4  46.9  43.5 1025.0 -9.9 -9.999 -99.9 -99.99 -9.99
2020/02/18 15:00 PST    1.02   0.29    4  330    4  46.6  43.5 1025.0 -9.9 -9.999 -99.9 -99.99 -9.99
2020/02/18 15:06 PST    0.93   0.23    3  339    4  46.8  43.5 1024.9 -9.9 -9.999 -99.9 -99.99 -9.99
2020/02/18 15:12 PST    0.84   0.15    3  356    4  46.9  43.7 1024.9 -9.9 -9.999 -99.9 -99.99 -9.99
2020/02/18 15:18 PST    0.76   0.06    3    7    5  46.9  43.7 1024.9 -9.9 -9.999 -99.9 -99.99 -9.99
2020/02/18 15:24 PST    0.69  -0.03    2  305    4  47.8  43.7 1024.9 -9.9 -9.999 -99.9 -99.99 -9.99
2020/02/18 15:30 PST    0.63  -0.09    3  332    3  48.2  43.7 1024.9 -9.9 -9.999 -99.9 -99.99 -9.99
2020/02/18 15:36 PST    0.57  -0.15    1  326    3  48.9  43.7 1024.9 -9.9 -9.999 -99.9 -99.99 -9.99
2020/02/18 15:42 PST    0.52  -0.20    3  316    5  48.6  43.7 1024.8 -9.9 -9.999 -99.9 -99.99 -9.99
2020/02/18 15:48 PST    0.48  -0.25    1    0    4  49.8  43.7 1024.8 -9.9 -9.999 -99.9 -99.99 -9.99
2020/02/18 15:54 PST    0.45  -0.30    3  342    5  49.1  43.7 1024.7 -9.9 -9.999 -99.9 -99.99 -9.99
2020/02/18 16:00 PST    0.43  -0.33    2  317    4  48.9  43.9 1024.7 -9.9 -9.999 -99.9 -99.99 -9.99
2020/02/18 16:06 PST    0.41  -0.35    3  331    4  48.6  43.9 1024.6 -9.9 -9.999 -99.9 -99.99 -9.99
2020/02/18 16:12 PST    0.41  -0.37    1  276    3  49.1  43.9 1024.6 -9.9 -9.999 -99.9 -99.99 -9.99
2020/02/18 16:18 PST    0.41  -0.37    2  285    3  49.1  43.9 1024.5 -9.9 -9.999 -99.9 -99.99 -9.99
2020/02/18 16:24 PST    0.42  -0.38    1  330    2  48.9  43.9 1024.5 -9.9 -9.999 -99.9 -99.99 -9.99
2020/02/18 16:30 PST    0.43  -0.38    1  331    2  48.6  43.9 1024.6 -9.9 -9.999 -99.9 -99.99 -9.99
2020/02/18 16:36 PST    0.46  -0.37    1   14    2  49.5  43.9 1024.6 -9.9 -9.999 -99.9 -99.99 -9.99
2020/02/18 16:42 PST    0.49  -0.34    2  358    3  49.3  43.9 1024.7 -9.9 -9.999 -99.9 -99.99 -9.99
2020/02/18 16:48 PST    0.53  -0.30    2  338    4  49.1  44.1 1024.6 -9.9 -9.999 -99.9 -99.99 -9.99
2020/02/18 16:54 PST    0.58  -0.26    3  343    4  48.7  44.1 1024.6 -9.9 -9.999 -99.9 -99.99 -9.99
2020/02/18 17:00 PST    0.63  -0.19    2  357    5  48.7  44.1 1024.6 -9.9 -9.999 -99.9 -99.99 -9.99
2020/02/18 17:06 PST    0.69  -0.11    1   22    3  49.3  44.1 1024.6 -9.9 -9.999 -99.9 -99.99 -9.99
2020/02/18 17:12 PST    0.76  -0.04    2  314    4  49.3  44.1 1024.5 -9.9 -9.999 -99.9 -99.99 -9.99
2020/02/18 17:18 PST    0.84   0.03    2    1    4  48.6  44.1 1024.5 -9.9 -9.999 -99.9 -99.99 -9.99
2020/02/18 17:24 PST    0.92   0.13    2  337    4  48.4  44.1 1024.4 -9.9 -9.999 -99.9 -99.99 -9.99
2020/02/18 17:30 PST    1.01   0.23    0  223    2  48.0  44.1 1024.4 -9.9 -9.999 -99.9 -99.99 -9.99
2020/02/18 17:36 PST    1.10   0.34    1   64    3  47.1  43.9 1024.4 -9.9 -9.999 -99.9 -99.99 -9.99
2020/02/18 17:42 PST    1.20   0.45    1   65    3  46.0  43.9 1024.4 -9.9 -9.999 -99.9 -99.99 -9.99
2020/02/18 17:48 PST    1.30   0.57    1  162    3  45.3  43.9 1024.4 -9.9 -9.999 -99.9 -99.99 -9.99
2020/02/18 17:54 PST    1.41   0.70    1  116    5  45.7  43.9 1024.4 -9.9 -9.999 -99.9 -99.99 -9.99
2020/02/18 18:00 PST    1.53   0.83    3    5    6  46.2  43.9 1024.5 -9.9 -9.999 -99.9 -99.99 -9.99
2020/02/18 18:06 PST    1.64   0.96    1   14    5  45.9  43.7 1024.5 -9.9 -9.999 -99.9 -99.99 -9.99
2020/02/18 18:12 PST    1.77   1.11    6   43    9  46.2  43.7 1024.5 -9.9 -9.999 -99.9 -99.99 -9.99
2020/02/18 18:18 PST    1.90   1.25    4   33    8  45.7  43.7 1024.5 -9.9 -9.999 -99.9 -99.99 -9.99
2020/02/18 18:24 PST    2.03   1.39    6   39    9  45.3  43.7 1024.5 -9.9 -9.999 -99.9 -99.99 -9.99
2020/02/18 18:30 PST    2.17   1.53    5   52    9  45.0  43.7 1024.6 -9.9 -9.999 -99.9 -99.99 -9.99
2020/02/18 18:36 PST    2.31   1.68    4   22    6  44.6  43.7 1024.6 -9.9 -9.999 -99.9 -99.99 -9.99
2020/02/18 18:42 PST    2.45   1.83    4   38   10  44.4  43.7 1024.6 -9.9 -9.999 -99.9 -99.99 -9.99
2020/02/18 18:48 PST    2.60   1.99    4   25    7  44.1  43.7 1024.6 -9.9 -9.999 -99.9 -99.99 -9.99
2020/02/18 18:54 PST    2.75   2.14    4   54    9  44.2  43.7 1024.6 -9.9 -9.999 -99.9 -99.99 -9.99
2020/02/18 19:00 PST    2.90   2.26    4   38   11  43.9  43.7 1024.6 -9.9 -9.999 -99.9 -99.99 -9.99
2020/02/18 19:06 PST    3.06   2.41    5   58   10  43.7  43.7 1024.6 -9.9 -9.999 -99.9 -99.99 -9.99
2020/02/18 19:12 PST    3.22   2.56    7   48   11  43.5  43.7 1024.6 -9.9 -9.999 -99.9 -99.99 -9.99
2020/02/18 19:18 PST    3.38   2.71    6   32   11  43.3  43.7 1024.7 -9.9 -9.999 -99.9 -99.99 -9.99
2020/02/18 19:24 PST    3.54   2.85    7   41   11  43.3  43.7 1024.7 -9.9 -9.999 -99.9 -99.99 -9.99
2020/02/18 19:30 PST    3.70   3.00    6   33   11  43.2  43.7 1024.7 -9.9 -9.999 -99.9 -99.99 -9.99
2020/02/18 19:36 PST    3.87   3.15    7   23   10  43.0  43.5 1024.7 -9.9 -9.999 -99.9 -99.99 -9.99
2020/02/18 19:42 PST    4.03   3.30    6   26    9  43.2  43.5 1024.7 -9.9 -9.999 -99.9 -99.99 -9.99
2020/02/18 19:48 PST    4.20   3.44    5   20    8  43.2  43.5 1024.7 -9.9 -9.999 -99.9 -99.99 -9.99
2020/02/18 19:54 PST    4.36 -99.99 -999 -999 -999 -99.9 -99.9 -999.9 -9.9 -9.999 -99.9 -99.99 -9.99
2020/02/18 20:00 PST    4.52 -99.99 -999 -999 -999 -99.9 -99.9 -999.9 -9.9 -9.999 -99.9 -99.99 -9.99
2020/02/18 20:06 PST    4.69 -99.99 -999 -999 -999 -99.9 -99.9 -999.9 -9.9 -9.999 -99.9 -99.99 -9.99
2020/02/18 20:12 PST    4.85 -99.99 -999 -999 -999 -99.9 -99.9 -999.9 -9.9 -9.999 -99.9 -99.99 -9.99
2020/02/18 20:18 PST    5.00 -99.99 -999 -999 -999 -99.9 -99.9 -999.9 -9.9 -9.999 -99.9 -99.99 -9.99
2020/02/18 20:24 PST    5.16 -99.99 -999 -999 -999 -99.9 -99.9 -999.9 -9.9 -9.999 -99.9 -99.99 -9.99
2020/02/18 20:30 PST    5.31 -99.99 -999 -999 -999 -99.9 -99.9 -999.9 -9.9 -9.999 -99.9 -99.99 -9.99
2020/02/18 20:36 PST    5.46 -99.99 -999 -999 -999 -99.9 -99.9 -999.9 -9.9 -9.999 -99.9 -99.99 -9.99
2020/02/18 20:42 PST    5.60 -99.99 -999 -999 -999 -99.9 -99.9 -999.9 -9.9 -9.999 -99.9 -99.99 -9.99
2020/02/18 20:48 PST    5.74 -99.99 -999 -999 -999 -99.9 -99.9 -999.9 -9.9 -9.999 -99.9 -99.99 -9.99
2020/02/18 20:54 PST    5.87 -99.99 -999 -999 -999 -99.9 -99.9 -999.9 -9.9 -9.999 -99.9 -99.99 -9.99
2020/02/18 21:00 PST    6.00 -99.99 -999 -999 -999 -99.9 -99.9 -999.9 -9.9 -9.999 -99.9 -99.99 -9.99
2020/02/18 21:06 PST    6.12 -99.99 -999 -999 -999 -99.9 -99.9 -999.9 -9.9 -9.999 -99.9 -99.99 -9.99
2020/02/18 21:12 PST    6.24 -99.99 -999 -999 -999 -99.9 -99.9 -999.9 -9.9 -9.999 -99.9 -99.99 -9.99
2020/02/18 21:18 PST    6.34 -99.99 -999 -999 -999 -99.9 -99.9 -999.9 -9.9 -9.999 -99.9 -99.99 -9.99
2020/02/18 21:24 PST    6.45 -99.99 -999 -999 -999 -99.9 -99.9 -999.9 -9.9 -9.999 -99.9 -99.99 -9.99
2020/02/18 21:30 PST    6.54 -99.99 -999 -999 -999 -99.9 -99.9 -999.9 -9.9 -9.999 -99.9 -99.99 -9.99
2020/02/18 21:36 PST    6.63 -99.99 -999 -999 -999 -99.9 -99.9 -999.9 -9.9 -9.999 -99.9 -99.99 -9.99
2020/02/18 21:42 PST    6.71 -99.99 -999 -999 -999 -99.9 -99.9 -999.9 -9.9 -9.999 -99.9 -99.99 -9.99
2020/02/18 21:48 PST    6.78 -99.99 -999 -999 -999 -99.9 -99.9 -999.9 -9.9 -9.999 -99.9 -99.99 -9.99
2020/02/18 21:54 PST    6.84 -99.99 -999 -999 -999 -99.9 -99.9 -999.9 -9.9 -9.999 -99.9 -99.99 -9.99
2020/02/18 22:00 PST    6.90 -99.99 -999 -999 -999 -99.9 -99.9 -999.9 -9.9 -9.999 -99.9 -99.99 -9.99
2020/02/18 22:06 PST    6.94 -99.99 -999 -999 -999 -99.9 -99.9 -999.9 -9.9 -9.999 -99.9 -99.99 -9.99
2020/02/18 22:12 PST    6.98 -99.99 -999 -999 -999 -99.9 -99.9 -999.9 -9.9 -9.999 -99.9 -99.99 -9.99
2020/02/18 22:18 PST    7.01 -99.99 -999 -999 -999 -99.9 -99.9 -999.9 -9.9 -9.999 -99.9 -99.99 -9.99
2020/02/18 22:24 PST    7.04 -99.99 -999 -999 -999 -99.9 -99.9 -999.9 -9.9 -9.999 -99.9 -99.99 -9.99
2020/02/18 22:30 PST    7.05 -99.99 -999 -999 -999 -99.9 -99.9 -999.9 -9.9 -9.999 -99.9 -99.99 -9.99
2020/02/18 22:36 PST    7.06 -99.99 -999 -999 -999 -99.9 -99.9 -999.9 -9.9 -9.999 -99.9 -99.99 -9.99
2020/02/18 22:42 PST    7.06 -99.99 -999 -999 -999 -99.9 -99.9 -999.9 -9.9 -9.999 -99.9 -99.99 -9.99
2020/02/18 22:48 PST    7.05 -99.99 -999 -999 -999 -99.9 -99.9 -999.9 -9.9 -9.999 -99.9 -99.99 -9.99
2020/02/18 22:54 PST    7.04 -99.99 -999 -999 -999 -99.9 -99.9 -999.9 -9.9 -9.999 -99.9 -99.99 -9.99
2020/02/18 23:00 PST    7.01 -99.99 -999 -999 -999 -99.9 -99.9 -999.9 -9.9 -9.999 -99.9 -99.99 -9.99
2020/02/18 23:06 PST    6.99 -99.99 -999 -999 -999 -99.9 -99.9 -999.9 -9.9 -9.999 -99.9 -99.99 -9.99
2020/02/18 23:12 PST    6.95 -99.99 -999 -999 -999 -99.9 -99.9 -999.9 -9.9 -9.999 -99.9 -99.99 -9.99
2020/02/18 23:18 PST    6.91 -99.99 -999 -999 -999 -99.9 -99.9 -999.9 -9.9 -9.999 -99.9 -99.99 -9.99
2020/02/18 23:24 PST    6.87 -99.99 -999 -999 -999 -99.9 -99.9 -999.9 -9.9 -9.999 -99.9 -99.99 -9.99
2020/02/18 23:30 PST    6.81 -99.99 -999 -999 -999 -99.9 -99.9 -999.9 -9.9 -9.999 -99.9 -99.99 -9.99
2020/02/18 23:36 PST    6.76 -99.99 -999 -999 -999 -99.9 -99.9 -999.9 -9.9 -9.999 -99.9 -99.99 -9.99
2020/02/18 23:42 PST    6.70 -99.99 -999 -999 -999 -99.9 -99.9 -999.9 -9.9 -9.999 -99.9 -99.99 -9.99
2020/02/18 23:48 PST    6.63 -99.99 -999 -999 -999 -99.9 -99.9 -999.9 -9.9 -9.999 -99.9 -99.99 -9.99
2020/02/18 23:54 PST    6.56 -99.99 -999 -999 -999 -99.9 -99.9 -999.9 -9.9 -9.999 -99.9 -99.99 -9.99
2020/02/19 00:00 PST    6.49 -99.99 -999 -999 -999 -99.9 -99.9 -999.9 -9.9 -9.999 -99.9 -99.99 -9.99
2020/02/19 00:06 PST    6.41 -99.99 -999 -999 -999 -99.9 -99.9 -999.9 -9.9 -9.999 -99.9 -99.99 -9.99
2020/02/19 00:12 PST    6.33 -99.99 -999 -999 -999 -99.9 -99.9 -999.9 -9.9 -9.999 -99.9 -99.99 -9.99
2020/02/19 00:18 PST    6.25 -99.99 -999 -999 -999 -99.9 -99.9 -999.9 -9.9 -9.999 -99.9 -99.99 -9.99
2020/02/19 00:24 PST    6.16 -99.99 -999 -999 -999 -99.9 -99.9 -999.9 -9.9 -9.999 -99.9 -99.99 -9.99
2020/02/19 00:30 PST    6.07 -99.99 -999 -999 -999 -99.9 -99.9 -999.9 -9.9 -9.999 -99.9 -99.99 -9.99
2020/02/19 00:36 PST    5.99 -99.99 -999 -999 -999 -99.9 -99.9 -999.9 -9.9 -9.999 -99.9 -99.99 -9.99
2020/02/19 00:42 PST    5.89 -99.99 -999 -999 -999 -99.9 -99.9 -999.9 -9.9 -9.999 -99.9 -99.99 -9.99
2020/02/19 00:48 PST    5.80 -99.99 -999 -999 -999 -99.9 -99.9 -999.9 -9.9 -9.999 -99.9 -99.99 -9.99
2020/02/19 00:54 PST    5.71 -99.99 -999 -999 -999 -99.9 -99.9 -999.9 -9.9 -9.999 -99.9 -99.99 -9.99
2020/02/19 01:00 PST    5.61 -99.99 -999 -999 -999 -99.9 -99.9 -999.9 -9.9 -9.999 -99.9 -99.99 -9.99
2020/02/19 01:06 PST    5.52 -99.99 -999 -999 -999 -99.9 -99.9 -999.9 -9.9 -9.999 -99.9 -99.99 -9.99
2020/02/19 01:12 PST    5.42 -99.99 -999 -999 -999 -99.9 -99.9 -999.9 -9.9 -9.999 -99.9 -99.99 -9.99
2020/02/19 01:18 PST    5.33 -99.99 -999 -999 -999 -99.9 -99.9 -999.9 -9.9 -9.999 -99.9 -99.99 -9.99
2020/02/19 01:24 PST    5.23 -99.99 -999 -999 -999 -99.9 -99.9 -999.9 -9.9 -9.999 -99.9 -99.99 -9.99
2020/02/19 01:30 PST    5.13 -99.99 -999 -999 -999 -99.9 -99.9 -999.9 -9.9 -9.999 -99.9 -99.99 -9.99
2020/02/19 01:36 PST    5.04 -99.99 -999 -999 -999 -99.9 -99.9 -999.9 -9.9 -9.999 -99.9 -99.99 -9.99
2020/02/19 01:42 PST    4.94 -99.99 -999 -999 -999 -99.9 -99.9 -999.9 -9.9 -9.999 -99.9 -99.99 -9.99
2020/02/19 01:48 PST    4.85 -99.99 -999 -999 -999 -99.9 -99.9 -999.9 -9.9 -9.999 -99.9 -99.99 -9.99
2020/02/19 01:54 PST    4.75 -99.99 -999 -999 -999 -99.9 -99.9 -999.9 -9.9 -9.999 -99.9 -99.99 -9.99
2020/02/19 02:00 PST    4.66 -99.99 -999 -999 -999 -99.9 -99.9 -999.9 -9.9 -9.999 -99.9 -99.99 -9.99